sensor_id;sensor_type;location;lat;lon;timestamp;pressure;altitude;pressure_sealevel;temperature;humidity
13836;BME280;6988;52.614;13.500;2024-02-14T00:02:55;55052.09;;;-143.77;81.70
13836;BME280;6988;52.614;13.500;2024-02-14T00:07:47;55047.97;;;-143.77;81.75
13836;BME280;6988;52.614;13.500;2024-02-14T00:12:38;55013.09;;;-143.77;81.61
13836;BME280;6988;52.614;13.500;2024-02-14T00:17:30;55017.19;;;-143.77;81.38
13836;BME280;6988;52.614;13.500;2024-02-14T00:22:23;55074.66;;;-143.77;81.22
13836;BME280;6988;52.614;13.500;2024-02-14T00:27:15;55033.59;;;-143.77;81.73
13836;BME280;6988;52.614;13.500;2024-02-14T00:32:07;55054.13;;;-143.77;81.63
13836;BME280;6988;52.614;13.500;2024-02-14T00:36:59;55054.13;;;-143.77;82.03
13836;BME280;6988;52.614;13.500;2024-02-14T00:41:52;55056.19;;;-143.77;82.36
13836;BME280;6988;52.614;13.500;2024-02-14T00:46:45;55058.25;;;-143.77;82.28
13836;BME280;6988;52.614;13.500;2024-02-14T00:51:37;55045.91;;;-143.77;82.27
13836;BME280;6988;52.614;13.500;2024-02-14T00:56:29;55041.81;;;-143.77;82.31
13836;BME280;6988;52.614;13.500;2024-02-14T01:01:22;55050.03;;;-143.77;82.58
13836;BME280;6988;52.614;13.500;2024-02-14T01:06:15;55058.25;;;-143.77;82.53
13836;BME280;6988;52.614;13.500;2024-02-14T01:11:07;55058.25;;;-143.77;83.11
13836;BME280;6988;52.614;13.500;2024-02-14T01:15:58;55041.81;;;-143.77;83.13
13836;BME280;6988;52.614;13.500;2024-02-14T01:20:51;55041.81;;;-143.77;83.19
13836;BME280;6988;52.614;13.500;2024-02-14T01:25:44;55050.03;;;-143.77;83.43
13836;BME280;6988;52.614;13.500;2024-02-14T01:30:36;55080.81;;;-143.77;83.46
13836;BME280;6988;52.614;13.500;2024-02-14T01:35:27;55086.97;;;-143.77;83.87
13836;BME280;6988;52.614;13.500;2024-02-14T01:40:21;55089.03;;;-143.77;83.72
13836;BME280;6988;52.614;13.500;2024-02-14T01:45:12;55068.50;;;-143.77;83.54
13836;BME280;6988;52.614;13.500;2024-02-14T01:50:06;55056.19;;;-143.77;83.89
13836;BME280;6988;52.614;13.500;2024-02-14T01:54:59;55062.34;;;-143.77;84.04
13836;BME280;6988;52.614;13.500;2024-02-14T01:59:54;55045.91;;;-143.77;84.21
13836;BME280;6988;52.614;13.500;2024-02-14T02:04:47;55050.03;;;-143.77;83.94
13836;BME280;6988;52.614;13.500;2024-02-14T02:09:38;55082.88;;;-143.77;84.44
13836;BME280;6988;52.614;13.500;2024-02-14T02:14:30;55062.34;;;-143.77;84.21
13836;BME280;6988;52.614;13.500;2024-02-14T02:19:23;55052.09;;;-143.77;84.59
13836;BME280;6988;52.614;13.500;2024-02-14T02:24:16;55082.88;;;-143.77;84.94
13836;BME280;6988;52.614;13.500;2024-02-14T02:29:08;55025.41;;;-143.77;84.84
13836;BME280;6988;52.614;13.500;2024-02-14T02:34:00;55066.44;;;-143.77;85.19
13836;BME280;6988;52.614;13.500;2024-02-14T02:38:52;55070.56;;;-143.77;86.11
13836;BME280;6988;52.614;13.500;2024-02-14T02:43:45;55025.41;;;-143.77;86.15
13836;BME280;6988;52.614;13.500;2024-02-14T02:48:36;55062.34;;;-143.77;86.09
13836;BME280;6988;52.614;13.500;2024-02-14T02:53:28;55082.88;;;-143.77;85.82
13836;BME280;6988;52.614;13.500;2024-02-14T02:58:20;55082.88;;;-143.77;86.28
13836;BME280;6988;52.614;13.500;2024-02-14T03:03:14;55045.91;;;-143.77;86.18
13836;BME280;6988;52.614;13.500;2024-02-14T03:08:06;55082.88;;;-143.77;86.35
13836;BME280;6988;52.614;13.500;2024-02-14T03:12:58;55068.50;;;-143.77;86.67
13836;BME280;6988;52.614;13.500;2024-02-14T03:17:50;55082.88;;;-143.77;86.79
13836;BME280;6988;52.614;13.500;2024-02-14T03:22:44;55082.88;;;-143.77;86.42
13836;BME280;6988;52.614;13.500;2024-02-14T03:27:36;55068.50;;;-143.77;86.57
13836;BME280;6988;52.614;13.500;2024-02-14T03:32:28;55089.03;;;-143.77;86.66
13836;BME280;6988;52.614;13.500;2024-02-14T03:37:19;55052.09;;;-143.77;87.47
13836;BME280;6988;52.614;13.500;2024-02-14T03:42:13;55062.34;;;-143.77;87.79
13836;BME280;6988;52.614;13.500;2024-02-14T03:47:06;55045.91;;;-143.77;88.27
13836;BME280;6988;52.614;13.500;2024-02-14T03:51:57;55056.19;;;-143.77;88.52
13836;BME280;6988;52.614;13.500;2024-02-14T03:56:51;55070.56;;;-143.77;88.43
13836;BME280;6988;52.614;13.500;2024-02-14T04:01:45;55062.34;;;-143.77;88.67
13836;BME280;6988;52.614;13.500;2024-02-14T04:06:37;55115.69;;;-143.77;89.13
13836;BME280;6988;52.614;13.500;2024-02-14T04:11:28;55062.34;;;-143.77;88.50
13836;BME280;6988;52.614;13.500;2024-02-14T04:16:20;55047.97;;;-143.77;89.34
13836;BME280;6988;52.614;13.500;2024-02-14T04:21:14;55058.25;;;-143.77;88.87
13836;BME280;6988;52.614;13.500;2024-02-14T04:26:05;55041.81;;;-143.77;88.78
13836;BME280;6988;52.614;13.500;2024-02-14T04:30:58;55043.88;;;-143.77;88.50
13836;BME280;6988;52.614;13.500;2024-02-14T04:35:50;55041.81;;;-143.77;88.73
13836;BME280;6988;52.614;13.500;2024-02-14T04:40:43;55041.81;;;-143.77;88.69
13836;BME280;6988;52.614;13.500;2024-02-14T04:45:35;55060.28;;;-143.77;88.73
13836;BME280;6988;52.614;13.500;2024-02-14T04:50:27;55015.13;;;-143.77;88.39
13836;BME280;6988;52.614;13.500;2024-02-14T04:55:18;55062.34;;;-143.77;88.78
13836;BME280;6988;52.614;13.500;2024-02-14T05:00:14;55029.50;;;-143.77;88.48
13836;BME280;6988;52.614;13.500;2024-02-14T05:05:06;55000.78;;;-143.77;88.10
13836;BME280;6988;52.614;13.500;2024-02-14T05:09:58;55019.25;;;-143.77;87.67
13836;BME280;6988;52.614;13.500;2024-02-14T05:14:50;55021.28;;;-143.77;86.97
13836;BME280;6988;52.614;13.500;2024-02-14T05:19:44;54990.50;;;-143.77;86.09
13836;BME280;6988;52.614;13.500;2024-02-14T05:24:35;54982.31;;;-143.77;85.99
13836;BME280;6988;52.614;13.500;2024-02-14T05:29:28;55004.88;;;-143.77;85.49
13836;BME280;6988;52.614;13.500;2024-02-14T05:34:19;55017.19;;;-143.77;85.60
13836;BME280;6988;52.614;13.500;2024-02-14T05:39:13;54984.34;;;-143.77;85.44
13836;BME280;6988;52.614;13.500;2024-02-14T05:44:06;55039.75;;;-143.77;85.36
13836;BME280;6988;52.614;13.500;2024-02-14T05:48:58;54972.03;;;-143.77;85.95
13836;BME280;6988;52.614;13.500;2024-02-14T05:53:49;54996.66;;;-143.77;85.82
13836;BME280;6988;52.614;13.500;2024-02-14T05:58:43;54978.19;;;-143.77;85.79
13836;BME280;6988;52.614;13.500;2024-02-14T06:03:34;54961.78;;;-143.77;85.60
13836;BME280;6988;52.614;13.500;2024-02-14T06:08:26;54976.16;;;-143.77;85.60
13836;BME280;6988;52.614;13.500;2024-02-14T06:13:18;54976.16;;;-143.77;85.05
13836;BME280;6988;52.614;13.500;2024-02-14T06:18:11;54970.00;;;-143.77;84.90
13836;BME280;6988;52.614;13.500;2024-02-14T06:23:03;54992.56;;;-143.77;84.67
13836;BME280;6988;52.614;13.500;2024-02-14T06:27:55;54967.94;;;-143.77;84.29
13836;BME280;6988;52.614;13.500;2024-02-14T06:32:46;55008.97;;;-143.77;84.66
13836;BME280;6988;52.614;13.500;2024-02-14T06:37:39;54965.88;;;-143.77;84.62
13836;BME280;6988;52.614;13.500;2024-02-14T06:42:31;54992.56;;;-143.77;84.59
13836;BME280;6988;52.614;13.500;2024-02-14T06:47:23;55000.78;;;-143.77;84.50
13836;BME280;6988;52.614;13.500;2024-02-14T06:52:20;54982.31;;;-143.77;84.38
13836;BME280;6988;52.614;13.500;2024-02-14T06:57:13;54959.72;;;-143.77;84.59
13836;BME280;6988;52.614;13.500;2024-02-14T07:02:05;54965.88;;;-143.77;84.43
13836;BME280;6988;52.614;13.500;2024-02-14T07:06:58;54965.88;;;-143.77;84.74
13836;BME280;6988;52.614;13.500;2024-02-14T07:11:51;54965.88;;;-143.77;84.74
13836;BME280;6988;52.614;13.500;2024-02-14T07:16:45;54957.69;;;-143.77;84.19
13836;BME280;6988;52.614;13.500;2024-02-14T07:21:38;54933.06;;;-143.77;83.64
13836;BME280;6988;52.614;13.500;2024-02-14T07:26:30;55000.78;;;-143.77;83.51
13836;BME280;6988;52.614;13.500;2024-02-14T07:31:22;54951.53;;;-143.77;83.78
13836;BME280;6988;52.614;13.500;2024-02-14T07:36:15;54910.47;;;-143.77;83.19
13836;BME280;6988;52.614;13.500;2024-02-14T07:41:07;54935.09;;;-143.77;83.43
13836;BME280;6988;52.614;13.500;2024-02-14T07:45:59;54974.09;;;-143.77;83.70
13836;BME280;6988;52.614;13.500;2024-02-14T07:50:51;54922.78;;;-143.77;83.66
13836;BME280;6988;52.614;13.500;2024-02-14T07:55:45;54914.59;;;-143.77;83.24
13836;BME280;6988;52.614;13.500;2024-02-14T08:00:36;54953.56;;;-143.77;82.98
13836;BME280;6988;52.614;13.500;2024-02-14T08:05:28;54926.91;;;-143.77;82.87
13836;BME280;6988;52.614;13.500;2024-02-14T08:10:20;54906.38;;;-143.77;82.98
13836;BME280;6988;52.614;13.500;2024-02-14T08:15:14;54941.25;;;-143.77;82.88
13836;BME280;6988;52.614;13.500;2024-02-14T08:20:07;54926.91;;;-143.77;82.98
13836;BME280;6988;52.614;13.500;2024-02-14T08:24:59;54947.41;;;-143.77;81.93
13836;BME280;6988;52.614;13.500;2024-02-14T08:29:51;54912.53;;;-143.77;81.95
13836;BME280;6988;52.614;13.500;2024-02-14T08:34:44;54935.09;;;-143.77;82.82
13836;BME280;6988;52.614;13.500;2024-02-14T08:39:36;54898.16;;;-143.77;83.17
13836;BME280;6988;52.614;13.500;2024-02-14T08:44:27;54898.16;;;-143.77;83.68
13836;BME280;6988;52.614;13.500;2024-02-14T08:49:19;54955.63;;;-143.77;84.13
13836;BME280;6988;52.614;13.500;2024-02-14T08:54:12;54877.66;;;-143.77;84.07
13836;BME280;6988;52.614;13.500;2024-02-14T08:59:06;54859.19;;;-143.77;84.04
13836;BME280;6988;52.614;13.500;2024-02-14T09:03:58;54914.59;;;-143.77;83.45
13836;BME280;6988;52.614;13.500;2024-02-14T09:08:50;54871.50;;;-143.77;82.25
13836;BME280;6988;52.614;13.500;2024-02-14T09:13:44;54881.75;;;-143.77;82.04
13836;BME280;6988;52.614;13.500;2024-02-14T09:18:38;54883.81;;;-143.77;81.17
13836;BME280;6988;52.614;13.500;2024-02-14T09:23:30;54848.91;;;-143.77;81.38
13836;BME280;6988;52.614;13.500;2024-02-14T09:28:22;54873.53;;;-143.77;81.72
13836;BME280;6988;52.614;13.500;2024-02-14T09:33:17;54875.59;;;-143.77;81.61
13836;BME280;6988;52.614;13.500;2024-02-14T09:38:08;54906.38;;;-143.77;81.56
13836;BME280;6988;52.614;13.500;2024-02-14T09:43:05;54840.72;;;-143.77;82.01
13836;BME280;6988;52.614;13.500;2024-02-14T09:48:03;54857.13;;;-143.77;82.82
13836;BME280;6988;52.614;13.500;2024-02-14T09:52:58;54883.81;;;-143.77;82.91
13836;BME280;6988;52.614;13.500;2024-02-14T09:57:51;54848.91;;;-143.77;83.26
13836;BME280;6988;52.614;13.500;2024-02-14T10:02:46;54840.72;;;-143.77;83.79
13836;BME280;6988;52.614;13.500;2024-02-14T10:07:40;54873.53;;;-143.77;84.34
13836;BME280;6988;52.614;13.500;2024-02-14T10:12:33;54873.53;;;-143.77;84.55
13836;BME280;6988;52.614;13.500;2024-02-14T10:17:25;54861.22;;;-143.77;85.31
13836;BME280;6988;52.614;13.500;2024-02-14T10:22:17;54832.50;;;-143.77;85.64
13836;BME280;6988;52.614;13.500;2024-02-14T10:27:11;54838.66;;;-143.77;85.90
13836;BME280;6988;52.614;13.500;2024-02-14T10:32:07;54814.03;;;-143.77;86.07
13836;BME280;6988;52.614;13.500;2024-02-14T10:37:01;54824.28;;;-143.77;86.06
13836;BME280;6988;52.614;13.500;2024-02-14T10:41:53;54807.88;;;-143.77;86.30
13836;BME280;6988;52.614;13.500;2024-02-14T10:46:46;54785.31;;;-143.77;86.59
13836;BME280;6988;52.614;13.500;2024-02-14T10:51:43;54789.41;;;-143.77;86.65
13836;BME280;6988;52.614;13.500;2024-02-14T10:56:41;54809.94;;;-143.77;86.03
13836;BME280;6988;52.614;13.500;2024-02-14T11:01:34;54803.78;;;-143.77;86.09
13836;BME280;6988;52.614;13.500;2024-02-14T11:06:26;54832.50;;;-143.77;86.10
13836;BME280;6988;52.614;13.500;2024-02-14T11:11:21;54816.09;;;-143.77;85.46
13836;BME280;6988;52.614;13.500;2024-02-14T11:16:13;54783.25;;;-143.77;85.63
13836;BME280;6988;52.614;13.500;2024-02-14T11:21:15;54766.84;;;-143.77;85.24
13836;BME280;6988;52.614;13.500;2024-02-14T11:26:15;54795.56;;;-143.77;85.11
13836;BME280;6988;52.614;13.500;2024-02-14T11:31:08;54783.25;;;-143.77;84.89
13836;BME280;6988;52.614;13.500;2024-02-14T11:36:08;54787.34;;;-143.77;84.98
13836;BME280;6988;52.614;13.500;2024-02-14T11:41:02;54754.53;;;-143.77;85.35
13836;BME280;6988;52.614;13.500;2024-02-14T11:45:54;54795.56;;;-143.77;85.67
13836;BME280;6988;52.614;13.500;2024-02-14T11:50:47;54789.41;;;-143.77;86.00
13836;BME280;6988;52.614;13.500;2024-02-14T11:55:40;54797.63;;;-143.77;86.29
13836;BME280;6988;52.614;13.500;2024-02-14T12:00:32;54801.72;;;-143.77;87.13
13836;BME280;6988;52.614;13.500;2024-02-14T12:05:26;54803.78;;;-143.77;87.41
13836;BME280;6988;52.614;13.500;2024-02-14T12:10:20;54762.72;;;-143.77;87.70
13836;BME280;6988;52.614;13.500;2024-02-14T12:15:12;54785.31;;;-143.77;88.07
13836;BME280;6988;52.614;13.500;2024-02-14T12:20:08;54814.03;;;-143.77;88.21
13836;BME280;6988;52.614;13.500;2024-02-14T12:25:01;54789.41;;;-143.77;87.84
13836;BME280;6988;52.614;13.500;2024-02-14T12:29:54;54816.09;;;-143.77;87.41
13836;BME280;6988;52.614;13.500;2024-02-14T12:34:46;54738.09;;;-143.77;87.67
13836;BME280;6988;52.614;13.500;2024-02-14T12:39:38;54781.19;;;-143.77;87.67
13836;BME280;6988;52.614;13.500;2024-02-14T12:44:30;54770.94;;;-143.77;87.19
13836;BME280;6988;52.614;13.500;2024-02-14T12:49:23;54781.19;;;-143.77;87.77
13836;BME280;6988;52.614;13.500;2024-02-14T12:54:16;54764.78;;;-143.77;88.32
13836;BME280;6988;52.614;13.500;2024-02-14T12:59:15;54783.25;;;-143.77;88.54
13836;BME280;6988;52.614;13.500;2024-02-14T13:04:08;54768.88;;;-143.77;88.69
13836;BME280;6988;52.614;13.500;2024-02-14T13:09:02;54744.25;;;-143.77;88.71
13836;BME280;6988;52.614;13.500;2024-02-14T13:13:56;54793.50;;;-143.77;88.48
13836;BME280;6988;52.614;13.500;2024-02-14T13:18:47;54758.63;;;-143.77;88.45
13836;BME280;6988;52.614;13.500;2024-02-14T13:23:39;54775.03;;;-143.77;88.97
13836;BME280;6988;52.614;13.500;2024-02-14T13:28:32;54752.47;;;-143.77;89.24
13836;BME280;6988;52.614;13.500;2024-02-14T13:33:24;54746.31;;;-143.77;89.32
13836;BME280;6988;52.614;13.500;2024-02-14T13:38:16;54768.88;;;-143.77;89.84
13836;BME280;6988;52.614;13.500;2024-02-14T13:43:09;54762.72;;;-143.77;90.02
13836;BME280;6988;52.614;13.500;2024-02-14T13:48:04;54750.41;;;-143.77;90.73
13836;BME280;6988;52.614;13.500;2024-02-14T13:52:57;54758.63;;;-143.77;90.87
13836;BME280;6988;52.614;13.500;2024-02-14T13:57:49;54729.91;;;-143.77;91.06
13836;BME280;6988;52.614;13.500;2024-02-14T14:02:41;54738.09;;;-143.77;91.39
13836;BME280;6988;52.614;13.500;2024-02-14T14:07:35;54738.09;;;-143.77;91.57
13836;BME280;6988;52.614;13.500;2024-02-14T14:12:27;54744.25;;;-143.77;91.74
13836;BME280;6988;52.614;13.500;2024-02-14T14:17:18;54746.31;;;-143.77;91.63
13836;BME280;6988;52.614;13.500;2024-02-14T14:22:10;54748.38;;;-143.77;92.09
13836;BME280;6988;52.614;13.500;2024-02-14T14:27:04;54742.22;;;-143.77;92.39
13836;BME280;6988;52.614;13.500;2024-02-14T14:31:59;54770.94;;;-143.77;92.64
13836;BME280;6988;52.614;13.500;2024-02-14T14:36:51;54764.78;;;-143.77;92.71
13836;BME280;6988;52.614;13.500;2024-02-14T14:41:45;54770.94;;;-143.77;93.11
13836;BME280;6988;52.614;13.500;2024-02-14T14:46:38;54758.63;;;-143.77;93.36
13836;BME280;6988;52.614;13.500;2024-02-14T14:51:32;54744.25;;;-143.77;93.48
13836;BME280;6988;52.614;13.500;2024-02-14T14:56:24;54760.69;;;-143.77;93.62
13836;BME280;6988;52.614;13.500;2024-02-14T15:01:17;54713.47;;;-143.77;93.60
13836;BME280;6988;52.614;13.500;2024-02-14T15:06:10;54754.53;;;-143.77;94.10
13836;BME280;6988;52.614;13.500;2024-02-14T15:11:03;54760.69;;;-143.77;94.07
13836;BME280;6988;52.614;13.500;2024-02-14T15:15:56;54764.78;;;-143.77;93.93
13836;BME280;6988;52.614;13.500;2024-02-14T15:20:51;54770.94;;;-143.77;94.22
13836;BME280;6988;52.614;13.500;2024-02-14T15:25:44;54699.13;;;-143.77;93.86
13836;BME280;6988;52.614;13.500;2024-02-14T15:30:36;54766.84;;;-143.77;94.01
13836;BME280;6988;52.614;13.500;2024-02-14T15:35:45;54717.59;;;-143.77;93.97
13836;BME280;6988;52.614;13.500;2024-02-14T15:40:36;54742.22;;;-143.77;93.86
13836;BME280;6988;52.614;13.500;2024-02-14T15:45:30;54762.72;;;-143.77;93.97
13836;BME280;6988;52.614;13.500;2024-02-14T15:50:22;54736.06;;;-143.77;93.74
13836;BME280;6988;52.614;13.500;2024-02-14T15:55:14;54727.84;;;-143.77;93.66
13836;BME280;6988;52.614;13.500;2024-02-14T16:00:08;54740.16;;;-143.77;93.75
13836;BME280;6988;52.614;13.500;2024-02-14T16:05:02;54736.06;;;-143.77;93.82
13836;BME280;6988;52.614;13.500;2024-02-14T16:09:54;54709.38;;;-143.77;93.54
13836;BME280;6988;52.614;13.500;2024-02-14T16:14:46;54754.53;;;-143.77;93.77
13836;BME280;6988;52.614;13.500;2024-02-14T16:19:37;54742.22;;;-143.77;93.56
13836;BME280;6988;52.614;13.500;2024-02-14T16:24:30;54729.91;;;-143.77;93.58
13836;BME280;6988;52.614;13.500;2024-02-14T16:29:22;54729.91;;;-143.77;93.24
13836;BME280;6988;52.614;13.500;2024-02-14T16:34:14;54740.16;;;-143.77;93.25
13836;BME280;6988;52.614;13.500;2024-02-14T16:39:06;54738.09;;;-143.77;92.78
13836;BME280;6988;52.614;13.500;2024-02-14T16:44:00;54734.00;;;-143.77;92.60
13836;BME280;6988;52.614;13.500;2024-02-14T16:48:51;54748.38;;;-143.77;91.96
13836;BME280;6988;52.614;13.500;2024-02-14T16:53:43;54699.13;;;-143.77;92.11
13836;BME280;6988;52.614;13.500;2024-02-14T16:58:35;54709.38;;;-143.77;92.00
13836;BME280;6988;52.614;13.500;2024-02-14T17:03:29;54703.22;;;-143.77;91.82
13836;BME280;6988;52.614;13.500;2024-02-14T17:08:20;54729.91;;;-143.77;91.54
13836;BME280;6988;52.614;13.500;2024-02-14T17:13:12;54738.09;;;-143.77;91.56
13836;BME280;6988;52.614;13.500;2024-02-14T17:18:05;54758.63;;;-143.77;91.18
13836;BME280;6988;52.614;13.500;2024-02-14T17:23:00;54719.63;;;-143.77;90.83
13836;BME280;6988;52.614;13.500;2024-02-14T17:27:52;54727.84;;;-143.77;90.74
13836;BME280;6988;52.614;13.500;2024-02-14T17:32:43;54709.38;;;-143.77;90.52
13836;BME280;6988;52.614;13.500;2024-02-14T17:37:38;54705.28;;;-143.77;90.32
13836;BME280;6988;52.614;13.500;2024-02-14T17:42:32;54721.69;;;-143.77;90.06
13836;BME280;6988;52.614;13.500;2024-02-14T17:47:24;54705.28;;;-143.77;89.65
13836;BME280;6988;52.614;13.500;2024-02-14T17:52:17;54701.16;;;-143.77;89.45
13836;BME280;6988;52.614;13.500;2024-02-14T17:57:10;54705.28;;;-143.77;89.08
13836;BME280;6988;52.614;13.500;2024-02-14T18:02:04;54713.47;;;-143.77;89.04
13836;BME280;6988;52.614;13.500;2024-02-14T18:06:56;54731.94;;;-143.77;88.53
13836;BME280;6988;52.614;13.500;2024-02-14T18:11:47;54688.84;;;-143.77;88.07
13836;BME280;6988;52.614;13.500;2024-02-14T18:16:39;54701.16;;;-143.77;88.32
13836;BME280;6988;52.614;13.500;2024-02-14T18:21:32;54738.09;;;-143.77;88.00
13836;BME280;6988;52.614;13.500;2024-02-14T18:26:24;54701.16;;;-143.77;88.13
13836;BME280;6988;52.614;13.500;2024-02-14T18:31:16;54715.53;;;-143.77;87.99
13836;BME280;6988;52.614;13.500;2024-02-14T18:36:08;54744.25;;;-143.77;87.89
13836;BME280;6988;52.614;13.500;2024-02-14T18:41:01;54713.47;;;-143.77;87.32
13836;BME280;6988;52.614;13.500;2024-02-14T18:45:53;54717.59;;;-143.77;87.12
13836;BME280;6988;52.614;13.500;2024-02-14T18:50:45;54752.47;;;-143.77;86.91
13836;BME280;6988;52.614;13.500;2024-02-14T18:55:38;54707.31;;;-143.77;86.87
13836;BME280;6988;52.614;13.500;2024-02-14T19:00:31;54705.28;;;-143.77;87.28
13836;BME280;6988;52.614;13.500;2024-02-14T19:05:22;54713.47;;;-143.77;86.96
13836;BME280;6988;52.614;13.500;2024-02-14T19:10:14;54705.28;;;-143.77;86.86
13836;BME280;6988;52.614;13.500;2024-02-14T19:15:08;54721.69;;;-143.77;86.75
13836;BME280;6988;52.614;13.500;2024-02-14T19:20:02;54715.53;;;-143.77;86.84
13836;BME280;6988;52.614;13.500;2024-02-14T19:24:57;54729.91;;;-143.77;86.67
13836;BME280;6988;52.614;13.500;2024-02-14T19:29:48;54731.94;;;-143.77;86.47
13836;BME280;6988;52.614;13.500;2024-02-14T19:34:40;54713.47;;;-143.77;86.16
13836;BME280;6988;52.614;13.500;2024-02-14T19:39:34;54692.97;;;-143.77;85.96
13836;BME280;6988;52.614;13.500;2024-02-14T19:44:26;54695.00;;;-143.77;85.77
13836;BME280;6988;52.614;13.500;2024-02-14T19:49:18;54695.00;;;-143.77;85.45
13836;BME280;6988;52.614;13.500;2024-02-14T19:54:10;54701.16;;;-143.77;84.72
13836;BME280;6988;52.614;13.500;2024-02-14T19:59:04;54715.53;;;-143.77;84.59
13836;BME280;6988;52.614;13.500;2024-02-14T20:03:56;54692.97;;;-143.77;84.81
13836;BME280;6988;52.614;13.500;2024-02-14T20:08:50;54736.06;;;-143.77;84.25
13836;BME280;6988;52.614;13.500;2024-02-14T20:13:44;54705.28;;;-143.77;84.22
13836;BME280;6988;52.614;13.500;2024-02-14T20:18:37;54680.66;;;-143.77;83.74
13836;BME280;6988;52.614;13.500;2024-02-14T20:23:29;54686.81;;;-143.77;83.78
13836;BME280;6988;52.614;13.500;2024-02-14T20:28:20;54715.53;;;-143.77;83.93
13836;BME280;6988;52.614;13.500;2024-02-14T20:33:14;54725.78;;;-143.77;83.88
13836;BME280;6988;52.614;13.500;2024-02-14T20:38:07;54684.75;;;-143.77;83.99
13836;BME280;6988;52.614;13.500;2024-02-14T20:43:00;54701.16;;;-143.77;84.35
13836;BME280;6988;52.614;13.500;2024-02-14T20:47:52;54709.38;;;-143.77;84.17
13836;BME280;6988;52.614;13.500;2024-02-14T20:52:44;54703.22;;;-143.77;83.92
13836;BME280;6988;52.614;13.500;2024-02-14T20:57:37;54697.06;;;-143.77;84.07
13836;BME280;6988;52.614;13.500;2024-02-14T21:02:28;54688.84;;;-143.77;84.44
13836;BME280;6988;52.614;13.500;2024-02-14T21:07:21;54717.59;;;-143.77;84.90
13836;BME280;6988;52.614;13.500;2024-02-14T21:12:12;54731.94;;;-143.77;85.41
13836;BME280;6988;52.614;13.500;2024-02-14T21:17:06;54707.31;;;-143.77;86.21
13836;BME280;6988;52.614;13.500;2024-02-14T21:21:58;54711.44;;;-143.77;86.84
13836;BME280;6988;52.614;13.500;2024-02-14T21:26:50;54717.59;;;-143.77;86.96
13836;BME280;6988;52.614;13.500;2024-02-14T21:31:42;54715.53;;;-143.77;87.39
13836;BME280;6988;52.614;13.500;2024-02-14T21:36:36;54711.44;;;-143.77;87.25
13836;BME280;6988;52.614;13.500;2024-02-14T21:41:28;54746.31;;;-143.77;87.68
13836;BME280;6988;52.614;13.500;2024-02-14T21:46:19;54697.06;;;-143.77;88.47
13836;BME280;6988;52.614;13.500;2024-02-14T21:51:15;54768.88;;;-143.77;89.13
13836;BME280;6988;52.614;13.500;2024-02-14T21:56:09;54721.69;;;-143.77;89.80
13836;BME280;6988;52.614;13.500;2024-02-14T22:01:00;54731.94;;;-143.77;89.97
13836;BME280;6988;52.614;13.500;2024-02-14T22:05:52;54688.84;;;-143.77;90.43
13836;BME280;6988;52.614;13.500;2024-02-14T22:10:44;54711.44;;;-143.77;90.64
13836;BME280;6988;52.614;13.500;2024-02-14T22:15:37;54770.94;;;-143.77;90.88
13836;BME280;6988;52.614;13.500;2024-02-14T22:20:30;54725.78;;;-143.77;91.15
13836;BME280;6988;52.614;13.500;2024-02-14T22:25:21;54738.09;;;-143.77;91.22
13836;BME280;6988;52.614;13.500;2024-02-14T22:30:14;54711.44;;;-143.77;91.48
13836;BME280;6988;52.614;13.500;2024-02-14T22:35:08;54729.91;;;-143.77;91.76
13836;BME280;6988;52.614;13.500;2024-02-14T22:39:59;54709.38;;;-143.77;91.67
13836;BME280;6988;52.614;13.500;2024-02-14T22:44:51;54721.69;;;-143.77;91.51
13836;BME280;6988;52.614;13.500;2024-02-14T23:03:45;54789.41;;;-143.77;93.40
13836;BME280;6988;52.614;13.500;2024-02-14T23:08:38;54762.72;;;-143.77;93.58
13836;BME280;6988;52.614;13.500;2024-02-14T23:13:30;54740.16;;;-143.77;93.73
13836;BME280;6988;52.614;13.500;2024-02-14T23:18:22;54717.59;;;-143.77;93.84
13836;BME280;6988;52.614;13.500;2024-02-14T23:23:15;54748.38;;;-143.77;93.64
13836;BME280;6988;52.614;13.500;2024-02-14T23:28:07;54740.16;;;-143.77;93.36
13836;BME280;6988;52.614;13.500;2024-02-14T23:33:00;54746.31;;;-143.77;93.56
13836;BME280;6988;52.614;13.500;2024-02-14T23:37:53;54707.31;;;-143.77;93.54
13836;BME280;6988;52.614;13.500;2024-02-14T23:42:48;54762.72;;;-143.77;93.42
13836;BME280;6988;52.614;13.500;2024-02-14T23:47:40;54740.16;;;-143.77;93.34
13836;BME280;6988;52.614;13.500;2024-02-14T23:52:32;54709.38;;;-143.77;93.29
13836;BME280;6988;52.614;13.500;2024-02-14T23:57:24;54711.44;;;-143.77;93.29
